createdAt,value
2023-12-05T00:00:09.314Z,100450.28
2023-12-05T00:02:36.825Z,100441.19
2023-12-05T00:05:04.839Z,100438.75
2023-12-05T00:07:32.535Z,100438.94
2023-12-05T00:10:01.380Z,100434.09
2023-12-05T00:12:28.970Z,100435.06
2023-12-05T00:14:56.437Z,100429.16
2023-12-05T00:17:23.864Z,100430.75
2023-12-05T00:19:51.349Z,100425.81
2023-12-05T00:22:21.955Z,100428.91
2023-12-05T00:24:49.548Z,100425.81
2023-12-05T00:27:18.713Z,100423.19
2023-12-05T00:29:49.034Z,100418.38
2023-12-05T00:32:17.052Z,100418.06
2023-12-05T00:34:47.480Z,100409.78
2023-12-05T00:37:15.114Z,100416.69
2023-12-05T00:39:43.451Z,100420.75
2023-12-05T00:42:11.087Z,100429.91
2023-12-05T00:44:38.633Z,100425.16
2023-12-05T00:47:07.458Z,100428.53
2023-12-05T00:49:37.978Z,100421.91
2023-12-05T00:52:06.142Z,100422.44
2023-12-05T00:54:33.698Z,100414.09
2023-12-05T00:57:01.140Z,100415.44
2023-12-05T00:59:28.637Z,100418.44
2023-12-05T01:01:56.756Z,100420.72
2023-12-05T01:04:25.137Z,100413.59
2023-12-05T01:06:52.842Z,100419.03
2023-12-05T01:09:21.795Z,100412.16
2023-12-05T01:11:50.128Z,100422.97
2023-12-05T01:14:17.623Z,100420.44
2023-12-05T01:16:45.282Z,100419.69
2023-12-05T01:19:13.373Z,100419.06
2023-12-05T01:21:41.374Z,100426.06
2023-12-05T01:24:09.141Z,100418.88
2023-12-05T01:26:36.570Z,100422.03
2023-12-05T01:29:04.671Z,100418.25
2023-12-05T01:31:32.639Z,100413.09
2023-12-05T01:34:00.349Z,100411.69
2023-12-05T01:36:28.596Z,100406.75
2023-12-05T01:38:56.618Z,100408.00
2023-12-05T01:41:24.836Z,100409.06
2023-12-05T01:43:52.351Z,100408.97
2023-12-05T01:46:21.775Z,100412.50
2023-12-05T01:48:50.042Z,100418.78
2023-12-05T01:51:18.319Z,100413.31
2023-12-05T01:53:47.597Z,100406.63
2023-12-05T01:56:15.545Z,100413.34
2023-12-05T01:58:43.142Z,100416.13
2023-12-05T02:01:14.504Z,100409.75
2023-12-05T02:03:42.170Z,100396.72
2023-12-05T02:06:11.788Z,100388.06
2023-12-05T02:08:41.192Z,100381.81
2023-12-05T02:11:09.054Z,100378.13
2023-12-05T02:13:37.059Z,100370.63
2023-12-05T02:16:32.829Z,100371.28
2023-12-05T02:19:43.639Z,100368.56
2023-12-05T02:23:13.536Z,100359.94
2023-12-05T02:25:59.300Z,100364.13
2023-12-05T02:28:27.592Z,100357.38
2023-12-05T02:30:55.072Z,100351.66
2023-12-05T02:33:22.822Z,100349.44
2023-12-05T02:36:05.262Z,100349.41
2023-12-05T02:38:50.132Z,100342.13
2023-12-05T02:41:27.134Z,100344.78
2023-12-05T02:44:12.680Z,100335.53
2023-12-05T02:46:43.932Z,100338.66
2023-12-05T02:49:13.402Z,100329.88
2023-12-05T02:51:43.252Z,100329.69
2023-12-05T02:54:10.783Z,100326.69
2023-12-05T02:56:38.336Z,100326.63
2023-12-05T02:59:06.649Z,100331.72
2023-12-05T03:01:43.739Z,100336.38
2023-12-05T03:04:11.405Z,100339.00
2023-12-05T03:06:39.007Z,100344.78
2023-12-05T03:09:06.600Z,100329.47
2023-12-05T03:11:34.242Z,100330.00
2023-12-05T03:14:04.829Z,100327.03
2023-12-05T03:16:32.352Z,100321.56
2023-12-05T03:19:00.554Z,100314.63
2023-12-05T03:21:28.567Z,100324.06
2023-12-05T03:23:56.205Z,100322.97
2023-12-05T03:26:25.063Z,100319.03
2023-12-05T03:28:53.752Z,100325.38
2023-12-05T03:31:21.343Z,100328.41
2023-12-05T03:33:48.855Z,100323.53
2023-12-05T03:36:16.784Z,100324.44
2023-12-05T03:38:44.234Z,100329.78
2023-12-05T03:41:11.812Z,100325.13
2023-12-05T03:43:39.277Z,100316.78
2023-12-05T03:46:07.439Z,100328.72
2023-12-05T03:48:35.187Z,100319.50
2023-12-05T03:51:03.029Z,100320.31
2023-12-05T03:53:30.671Z,100324.19
2023-12-05T03:55:58.151Z,100321.34
2023-12-05T03:58:25.765Z,100316.94
2023-12-05T04:00:53.273Z,100318.03
2023-12-05T04:03:24.816Z,100314.31
2023-12-05T04:05:52.618Z,100321.94
2023-12-05T04:08:20.169Z,100324.66
2023-12-05T04:10:48.161Z,100318.34
2023-12-05T04:13:15.809Z,100317.28
2023-12-05T04:15:43.531Z,100315.16
2023-12-05T04:18:11.108Z,100319.06
2023-12-05T04:20:39.437Z,100325.53
2023-12-05T04:23:07.028Z,100318.19
2023-12-05T04:25:34.707Z,100322.06
2023-12-05T04:28:02.141Z,100317.66
2023-12-05T04:30:30.150Z,100315.59
2023-12-05T04:32:58.015Z,100308.53
2023-12-05T04:35:25.679Z,100311.66
2023-12-05T04:37:53.356Z,100321.06
2023-12-05T04:40:20.839Z,100324.44
2023-12-05T04:42:48.310Z,100313.44
2023-12-05T04:45:16.169Z,100319.09
2023-12-05T04:47:43.942Z,100324.75
2023-12-05T04:50:11.763Z,100321.28
2023-12-05T04:52:39.262Z,100321.13
2023-12-05T04:55:07.504Z,100331.56
2023-12-05T04:57:35.197Z,100337.19
2023-12-05T05:00:02.978Z,100325.94
2023-12-05T05:02:30.652Z,100321.84
2023-12-05T05:04:58.141Z,100332.97
2023-12-05T05:07:25.634Z,100327.94
2023-12-05T05:09:53.712Z,100328.09
2023-12-05T05:12:21.361Z,100322.53
2023-12-05T05:14:52.002Z,100320.69
2023-12-05T05:17:19.469Z,100317.88
2023-12-05T05:19:47.666Z,100317.16
2023-12-05T05:22:15.781Z,100323.47
2023-12-05T05:24:43.390Z,100318.97
2023-12-05T05:27:13.298Z,100301.44
2023-12-05T05:29:41.004Z,100295.81
2023-12-05T05:32:08.482Z,100296.50
2023-12-05T05:34:36.238Z,100301.81
2023-12-05T05:37:04.171Z,100298.59
2023-12-05T05:39:31.934Z,100302.03
2023-12-05T05:42:02.515Z,100314.69
2023-12-05T05:44:30.160Z,100317.94
2023-12-05T05:46:57.605Z,100321.31
2023-12-05T05:49:25.969Z,100327.38
2023-12-05T05:51:53.677Z,100324.06
2023-12-05T05:54:21.653Z,100318.34
2023-12-05T05:56:49.041Z,100318.59
2023-12-05T05:59:16.505Z,100322.97
2023-12-05T06:01:44.158Z,100320.88
2023-12-05T06:04:11.765Z,100322.06
2023-12-05T06:06:39.318Z,100327.19
2023-12-05T06:09:19.626Z,100327.53
2023-12-05T06:11:58.916Z,100335.16
2023-12-05T06:14:26.967Z,100327.44
2023-12-05T06:16:55.052Z,100329.91
2023-12-05T06:19:22.618Z,100320.66
2023-12-05T06:21:50.635Z,100322.50
2023-12-05T06:24:18.149Z,100328.38
2023-12-05T06:26:46.388Z,100330.81
2023-12-05T06:29:13.937Z,100336.50
2023-12-05T06:31:42.022Z,100333.81
2023-12-05T06:34:09.801Z,100333.47
2023-12-05T06:36:37.424Z,100326.34
2023-12-05T06:39:05.721Z,100330.16
2023-12-05T06:41:33.321Z,100343.59
2023-12-05T06:44:00.784Z,100340.94
2023-12-05T06:46:28.423Z,100339.81
2023-12-05T06:48:56.297Z,100343.59
2023-12-05T06:51:24.324Z,100344.63
2023-12-05T06:53:52.002Z,100341.66
2023-12-05T06:56:21.971Z,100344.59
2023-12-05T06:58:49.499Z,100343.03
2023-12-05T07:01:18.297Z,100336.09
2023-12-05T07:03:51.192Z,100332.69
2023-12-05T07:06:24.434Z,100338.34
2023-12-05T07:08:52.401Z,100338.47
2023-12-05T07:11:20.102Z,100330.34
2023-12-05T07:13:52.588Z,100339.06
2023-12-05T07:16:20.117Z,100334.44
2023-12-05T07:18:48.128Z,100332.34
2023-12-05T07:21:15.870Z,100325.25
2023-12-05T07:23:52.610Z,100321.88
2023-12-05T07:26:26.977Z,100326.72
2023-12-05T07:28:54.715Z,100328.63
2023-12-05T07:31:23.028Z,100320.34
2023-12-05T07:33:51.345Z,100316.47
2023-12-05T07:36:18.978Z,100320.03
2023-12-05T07:38:46.449Z,100310.50
2023-12-05T07:41:22.116Z,100308.44
2023-12-05T07:43:51.085Z,100308.69
2023-12-05T07:46:19.797Z,100302.38
2023-12-05T07:48:49.973Z,100307.63
2023-12-05T07:51:20.495Z,100301.81
2023-12-05T07:53:54.599Z,100308.69
2023-12-05T07:56:21.934Z,100308.88
2023-12-05T07:58:49.209Z,100322.94
2023-12-05T08:01:18.398Z,100314.75
2023-12-05T08:03:45.987Z,100320.03
2023-12-05T08:06:13.586Z,100322.13
2023-12-05T08:08:41.523Z,100320.75
2023-12-05T08:11:11.460Z,100327.47
2023-12-05T08:13:39.342Z,100324.44
2023-12-05T08:16:07.399Z,100325.22
2023-12-05T08:18:38.085Z,100328.44
2023-12-05T08:21:06.980Z,100327.84
2023-12-05T08:23:34.411Z,100329.47
2023-12-05T08:26:01.784Z,100325.13
2023-12-05T08:28:30.923Z,100327.78
2023-12-05T08:30:58.419Z,100321.63
2023-12-05T08:33:28.746Z,100319.78
2023-12-05T08:35:56.378Z,100335.38
2023-12-05T08:38:23.927Z,100332.78
2023-12-05T08:40:53.650Z,100335.94
2023-12-05T08:43:24.862Z,100327.88
2023-12-05T08:45:52.880Z,100337.00
2023-12-05T08:48:20.362Z,100324.47
2023-12-05T08:50:47.961Z,100330.31
2023-12-05T08:53:15.331Z,100326.56
2023-12-05T08:55:43.917Z,100325.56
2023-12-05T08:58:11.523Z,100339.13
2023-12-05T09:00:39.058Z,100336.31
2023-12-05T09:03:06.525Z,100334.44
2023-12-05T09:05:34.034Z,100339.75
2023-12-05T09:08:02.445Z,100344.09
2023-12-05T09:10:29.841Z,100351.44
2023-12-05T09:12:57.207Z,100349.31
2023-12-05T09:15:26.221Z,100343.09
2023-12-05T09:17:53.929Z,100344.47
2023-12-05T09:20:21.253Z,100351.69
2023-12-05T09:22:49.745Z,100351.28
2023-12-05T09:25:18.686Z,100345.31
2023-12-05T09:27:46.215Z,100341.28
2023-12-05T09:30:16.010Z,100347.50
2023-12-05T09:32:43.701Z,100348.28
2023-12-05T09:35:10.975Z,100336.72
2023-12-05T09:37:38.352Z,100338.25
2023-12-05T09:40:06.615Z,100343.22
2023-12-05T09:42:37.577Z,100341.34
2023-12-05T09:45:09.696Z,100334.84
2023-12-05T09:47:38.109Z,100338.63
2023-12-05T09:50:06.815Z,100328.00
2023-12-05T09:52:35.574Z,100328.28
2023-12-05T09:55:04.563Z,100329.72
2023-12-05T09:57:32.678Z,100328.97
2023-12-05T10:00:00.344Z,100318.28
2023-12-05T10:02:28.266Z,100319.25
2023-12-05T10:05:02.596Z,100315.91
2023-12-05T10:07:31.051Z,100311.97
2023-12-05T10:09:59.745Z,100314.38
2023-12-05T10:12:27.713Z,100312.22
2023-12-05T10:14:55.692Z,100311.06
2023-12-05T10:17:23.272Z,100308.00
2023-12-05T10:19:51.096Z,100309.53
2023-12-05T10:22:18.798Z,100311.09
2023-12-05T10:24:52.634Z,100316.13
2023-12-05T10:27:20.184Z,100307.31
2023-12-05T10:29:48.332Z,100308.16
2023-12-05T10:32:15.821Z,100295.81
2023-12-05T10:34:55.922Z,100296.78
2023-12-05T10:37:31.273Z,100298.41
2023-12-05T10:40:00.452Z,100293.06
2023-12-05T10:42:31.825Z,100286.78
2023-12-05T10:44:59.446Z,100288.28
2023-12-05T10:47:29.878Z,100287.09
2023-12-05T10:49:58.272Z,100291.16
2023-12-05T10:52:26.640Z,100289.03
2023-12-05T10:55:00.648Z,100276.09
2023-12-05T10:57:32.450Z,100271.88
2023-12-05T11:00:00.683Z,100273.13
2023-12-05T11:02:28.347Z,100274.09
2023-12-05T11:04:57.147Z,100273.59
2023-12-05T11:07:24.588Z,100271.41
2023-12-05T11:09:52.113Z,100257.91
2023-12-05T11:12:21.075Z,100265.63
2023-12-05T11:14:53.913Z,100265.28
2023-12-05T11:17:46.290Z,100257.25
2023-12-05T11:21:02.093Z,100257.53
2023-12-05T11:24:35.155Z,100255.78
2023-12-05T11:27:36.260Z,100249.75
2023-12-05T11:30:49.989Z,100255.59
2023-12-05T11:34:04.028Z,100257.41
2023-12-05T11:37:41.710Z,100257.81
2023-12-05T11:40:10.346Z,100261.75
2023-12-05T11:42:38.056Z,100255.94
2023-12-05T11:45:25.628Z,100255.19
2023-12-05T11:47:53.287Z,100255.41
2023-12-05T11:50:20.970Z,100260.81
2023-12-05T11:52:48.458Z,100268.31
2023-12-05T11:55:16.764Z,100265.72
2023-12-05T11:57:45.446Z,100264.19
2023-12-05T12:00:13.363Z,100258.34
2023-12-05T12:02:48.962Z,100258.47
2023-12-05T12:05:17.520Z,100258.75
2023-12-05T12:07:59.804Z,100252.41
2023-12-05T12:10:30.288Z,100250.88
2023-12-05T12:12:58.941Z,100249.91
2023-12-05T12:15:27.477Z,100253.66
2023-12-05T12:17:55.793Z,100248.84
2023-12-05T12:20:23.746Z,100249.00
2023-12-05T12:22:53.011Z,100249.69
2023-12-05T12:25:20.648Z,100250.44
2023-12-05T12:27:48.802Z,100256.75
2023-12-05T12:30:19.984Z,100256.25
2023-12-05T12:32:59.696Z,100257.31
2023-12-05T12:35:27.651Z,100250.16
2023-12-05T12:37:56.145Z,100244.81
2023-12-05T12:40:24.502Z,100252.75
2023-12-05T12:42:56.750Z,100249.53
2023-12-05T12:45:27.387Z,100245.19
2023-12-05T12:47:55.463Z,100252.47
2023-12-05T12:50:23.043Z,100253.66
2023-12-05T12:52:50.463Z,100258.66
2023-12-05T12:55:20.879Z,100255.16
2023-12-05T12:57:51.750Z,100247.94
2023-12-05T13:00:31.947Z,100254.09
2023-12-05T13:03:06.917Z,100249.13
2023-12-05T13:05:42.634Z,100251.31
2023-12-05T13:08:10.214Z,100249.16
2023-12-05T13:10:38.865Z,100251.28
2023-12-05T13:13:08.329Z,100248.06
2023-12-05T13:15:35.955Z,100245.97
2023-12-05T13:18:09.075Z,100252.41
2023-12-05T13:21:09.990Z,100249.72
2023-12-05T13:23:38.241Z,100249.34
2023-12-05T13:26:07.328Z,100251.19
2023-12-05T13:28:35.350Z,100254.03
2023-12-05T13:31:03.116Z,100250.25
2023-12-05T13:33:30.455Z,100244.28
2023-12-05T13:35:57.843Z,100245.91
2023-12-05T13:38:25.498Z,100259.41
2023-12-05T13:40:52.896Z,100249.41
2023-12-05T13:43:20.290Z,100250.84
2023-12-05T13:45:47.755Z,100243.97
2023-12-05T13:48:15.327Z,100252.91
2023-12-05T13:50:42.697Z,100258.69
2023-12-05T13:53:10.135Z,100256.91
2023-12-05T13:55:37.508Z,100261.03
2023-12-05T13:58:05.235Z,100262.38
2023-12-05T14:00:32.552Z,100263.31
2023-12-05T14:02:59.969Z,100270.75
2023-12-05T14:05:27.583Z,100261.50
2023-12-05T14:07:55.436Z,100275.06
2023-12-05T14:10:22.878Z,100269.69
2023-12-05T14:12:50.460Z,100271.75
2023-12-05T14:15:18.243Z,100272.63
2023-12-05T14:17:45.601Z,100262.44
2023-12-05T14:20:13.120Z,100269.72
2023-12-05T14:22:40.486Z,100276.34
2023-12-05T14:25:09.390Z,100276.75
2023-12-05T14:27:37.101Z,100276.09
2023-12-05T14:30:06.268Z,100275.97
2023-12-05T14:32:33.984Z,100276.66
2023-12-05T14:35:01.560Z,100268.88
2023-12-05T14:37:29.192Z,100277.78
2023-12-05T14:39:57.382Z,100275.78
2023-12-05T14:42:25.333Z,100275.91
2023-12-05T14:44:52.957Z,100275.63
2023-12-05T14:47:20.461Z,100274.78
2023-12-05T14:49:47.955Z,100282.34
2023-12-05T14:52:15.806Z,100279.41
2023-12-05T14:54:43.328Z,100282.63
2023-12-05T14:57:10.631Z,100278.84
2023-12-05T14:59:38.086Z,100274.84
2023-12-05T15:02:05.772Z,100277.47
2023-12-05T15:04:33.428Z,100284.50
2023-12-05T15:07:01.215Z,100287.03
2023-12-05T15:09:28.669Z,100285.78
2023-12-05T15:11:56.051Z,100289.13
2023-12-05T15:14:23.345Z,100294.50
2023-12-05T15:16:51.761Z,100291.69
2023-12-05T15:19:19.376Z,100297.53
2023-12-05T15:21:46.996Z,100295.31
2023-12-05T15:24:14.333Z,100298.28
2023-12-05T15:26:41.824Z,100299.72
2023-12-05T15:29:09.511Z,100301.06
2023-12-05T15:31:43.496Z,100300.38
2023-12-05T15:34:11.851Z,100300.94
2023-12-05T15:36:41.173Z,100295.16
2023-12-05T15:39:17.646Z,100300.03
2023-12-05T15:41:45.997Z,100300.41
2023-12-05T15:44:13.417Z,100299.22
2023-12-05T15:46:40.894Z,100311.69
2023-12-05T15:49:08.479Z,100302.19
2023-12-05T15:51:37.485Z,100314.91
2023-12-05T15:54:05.491Z,100309.47
2023-12-05T15:56:33.548Z,100301.94
2023-12-05T15:59:00.977Z,100304.50
2023-12-05T16:01:42.996Z,100305.50
2023-12-05T16:04:10.856Z,100308.59
2023-12-05T16:06:38.319Z,100311.09
2023-12-05T16:09:06.288Z,100307.34
2023-12-05T16:11:34.609Z,100306.88
2023-12-05T16:14:02.047Z,100310.44
2023-12-05T16:16:29.629Z,100310.34
2023-12-05T16:18:58.254Z,100315.38
2023-12-05T16:21:25.629Z,100307.56
2023-12-05T16:23:53.067Z,100308.59
2023-12-05T16:26:20.610Z,100314.59
2023-12-05T16:28:47.988Z,100297.53
2023-12-05T16:31:15.380Z,100308.97
2023-12-05T16:33:43.323Z,100308.09
2023-12-05T16:36:11.288Z,100311.53
2023-12-05T16:38:38.683Z,100308.00
2023-12-05T16:41:06.236Z,100310.75
2023-12-05T16:43:34.120Z,100310.66
2023-12-05T16:46:01.526Z,100311.22
2023-12-05T16:48:29.012Z,100311.06
2023-12-05T16:50:56.412Z,100319.38
2023-12-05T16:53:23.837Z,100320.06
2023-12-05T16:55:52.103Z,100318.91
2023-12-05T16:58:21.838Z,100326.00
2023-12-05T17:00:49.596Z,100327.41
2023-12-05T17:03:17.510Z,100319.09
2023-12-05T17:05:44.938Z,100319.91
2023-12-05T17:08:12.391Z,100318.47
2023-12-05T17:10:40.066Z,100316.16
2023-12-05T17:13:07.361Z,100325.00
2023-12-05T17:15:36.323Z,100334.78
2023-12-05T17:18:04.264Z,100332.41
2023-12-05T17:20:31.681Z,100334.75
2023-12-05T17:22:59.056Z,100339.75
2023-12-05T17:25:26.406Z,100349.72
2023-12-05T17:27:53.951Z,100347.50
2023-12-05T17:30:21.516Z,100349.91
2023-12-05T17:32:49.029Z,100352.47
2023-12-05T17:35:16.568Z,100350.59
2023-12-05T17:37:43.966Z,100352.19
2023-12-05T17:40:12.249Z,100349.56
2023-12-05T17:42:39.738Z,100350.00
2023-12-05T17:45:07.968Z,100342.44
2023-12-05T17:47:35.405Z,100344.41
2023-12-05T17:50:02.891Z,100345.22
2023-12-05T17:52:30.287Z,100342.38
2023-12-05T17:54:57.656Z,100345.38
2023-12-05T17:57:24.934Z,100349.38
2023-12-05T17:59:52.351Z,100354.47
2023-12-05T18:02:19.739Z,100341.56
2023-12-05T18:04:47.262Z,100345.38
2023-12-05T18:07:51.372Z,100347.50
2023-12-05T18:10:03.079Z,100342.78
2023-12-05T18:12:30.722Z,100346.06
2023-12-05T18:14:59.208Z,100342.56
2023-12-05T18:17:26.984Z,100334.59
2023-12-05T18:19:54.541Z,100333.41
2023-12-05T18:22:21.997Z,100343.88
2023-12-05T18:24:49.918Z,100348.41
2023-12-05T18:27:17.674Z,100342.06
2023-12-05T18:29:48.110Z,100341.41
2023-12-05T18:32:16.012Z,100347.19
2023-12-05T18:34:44.866Z,100350.19
2023-12-05T18:37:12.221Z,100342.31
2023-12-05T18:39:39.655Z,100343.22
2023-12-05T18:42:07.671Z,100348.25
2023-12-05T18:44:35.920Z,100354.19
2023-12-05T18:47:03.442Z,100350.84
2023-12-05T18:49:30.931Z,100354.47
2023-12-05T18:51:58.454Z,100350.22
2023-12-05T18:54:25.851Z,100353.56
2023-12-05T18:56:53.280Z,100346.25
2023-12-05T18:59:20.780Z,100344.81
2023-12-05T19:01:48.308Z,100346.63
2023-12-05T19:04:15.706Z,100352.72
2023-12-05T19:06:43.211Z,100353.81
2023-12-05T19:09:10.880Z,100355.47
2023-12-05T19:11:38.455Z,100356.97
2023-12-05T19:14:05.969Z,100358.91
2023-12-05T19:16:34.865Z,100357.84
2023-12-05T19:19:05.645Z,100360.34
2023-12-05T19:21:33.068Z,100355.09
2023-12-05T19:24:00.670Z,100367.81
2023-12-05T19:26:30.151Z,100365.84
2023-12-05T19:29:00.364Z,100367.78
2023-12-05T19:31:30.407Z,100369.28
2023-12-05T19:33:58.302Z,100372.38
2023-12-05T19:36:25.910Z,100371.94
2023-12-05T19:38:54.100Z,100366.78
2023-12-05T19:41:21.814Z,100365.16
2023-12-05T19:43:49.299Z,100366.00
2023-12-05T19:46:16.733Z,100367.16
2023-12-05T19:48:45.626Z,100368.81
2023-12-05T19:51:13.131Z,100367.00
2023-12-05T19:53:40.495Z,100369.59
2023-12-05T19:56:09.013Z,100361.41
2023-12-05T19:58:40.602Z,100369.81
2023-12-05T20:01:08.092Z,100362.69
2023-12-05T20:03:35.753Z,100360.66
2023-12-05T20:06:03.885Z,100362.25
2023-12-05T20:08:31.317Z,100367.53
2023-12-05T20:10:58.728Z,100362.84
2023-12-05T20:13:26.186Z,100363.97
2023-12-05T20:15:54.227Z,100358.00
2023-12-05T20:18:21.939Z,100362.56
2023-12-05T20:20:49.586Z,100366.59
2023-12-05T20:23:17.016Z,100366.03
2023-12-05T20:25:47.515Z,100372.72
2023-12-05T20:28:15.894Z,100373.31
2023-12-05T20:30:43.716Z,100370.50
2023-12-05T20:33:11.104Z,100374.50
2023-12-05T20:35:38.636Z,100383.72
2023-12-05T20:38:06.088Z,100379.53
2023-12-05T20:40:33.439Z,100380.47
2023-12-05T20:43:01.550Z,100376.59
2023-12-05T20:45:29.731Z,100379.22
2023-12-05T20:47:58.734Z,100377.47
2023-12-05T20:50:26.190Z,100375.13
2023-12-05T20:52:55.975Z,100373.28
2023-12-05T20:55:23.294Z,100378.47
2023-12-05T20:57:50.661Z,100371.44
2023-12-05T21:00:18.894Z,100367.78
2023-12-05T21:02:47.294Z,100375.28
2023-12-05T21:05:14.980Z,100380.81
2023-12-05T21:07:45.936Z,100388.53
2023-12-05T21:10:13.560Z,100384.25
2023-12-05T21:12:40.929Z,100382.22
2023-12-05T21:15:12.108Z,100375.28
2023-12-05T21:17:39.616Z,100373.47
2023-12-05T21:20:11.493Z,100377.19
2023-12-05T21:22:39.462Z,100382.75
2023-12-05T21:25:07.789Z,100385.41
2023-12-05T21:27:35.204Z,100387.69
2023-12-05T21:30:03.041Z,100388.63
2023-12-05T21:32:30.378Z,100385.91
2023-12-05T21:34:58.077Z,100391.78
2023-12-05T21:37:25.986Z,100389.66
2023-12-05T21:39:53.553Z,100388.06
2023-12-05T21:42:20.980Z,100385.59
2023-12-05T21:44:48.301Z,100384.09
2023-12-05T21:47:15.861Z,100394.06
2023-12-05T21:49:43.314Z,100393.47
2023-12-05T21:52:11.193Z,100392.94
2023-12-05T21:54:38.638Z,100388.19
2023-12-05T21:57:06.213Z,100390.38
2023-12-05T21:59:33.648Z,100387.59
2023-12-05T22:02:01.101Z,100391.34
2023-12-05T22:04:28.497Z,100390.94
2023-12-05T22:06:55.928Z,100390.16
2023-12-05T22:09:23.442Z,100390.81
2023-12-05T22:11:50.762Z,100384.69
2023-12-05T22:14:21.128Z,100391.09
2023-12-05T22:16:48.474Z,100394.63
2023-12-05T22:19:15.868Z,100394.50
2023-12-05T22:21:44.479Z,100392.91
2023-12-05T22:24:20.274Z,100396.78
2023-12-05T22:26:52.684Z,100399.59
2023-12-05T22:29:20.038Z,100408.38
2023-12-05T22:31:47.566Z,100402.00
2023-12-05T22:34:18.041Z,100411.72
2023-12-05T22:36:46.193Z,100407.06
2023-12-05T22:39:13.635Z,100403.84
2023-12-05T22:41:45.038Z,100402.72
2023-12-05T22:44:12.532Z,100396.28
2023-12-05T22:46:40.116Z,100395.78
2023-12-05T22:49:07.782Z,100398.00
2023-12-05T22:51:35.895Z,100382.88
2023-12-05T22:54:03.267Z,100391.06
2023-12-05T22:56:30.647Z,100411.94
2023-12-05T22:58:58.048Z,100401.91
2023-12-05T23:01:25.471Z,100405.84
2023-12-05T23:03:52.952Z,100393.84
2023-12-05T23:06:20.312Z,100397.56
2023-12-05T23:08:47.682Z,100397.16
2023-12-05T23:11:15.180Z,100405.53
2023-12-05T23:13:42.644Z,100399.69
2023-12-05T23:16:10.212Z,100398.53
2023-12-05T23:18:37.675Z,100398.34
2023-12-05T23:21:05.403Z,100399.59
2023-12-05T23:23:32.885Z,100407.50
2023-12-05T23:26:00.298Z,100402.19
2023-12-05T23:28:27.791Z,100394.44
2023-12-05T23:30:55.608Z,100388.97
2023-12-05T23:33:23.352Z,100384.41
2023-12-05T23:35:50.768Z,100392.72
2023-12-05T23:38:18.068Z,100388.47
2023-12-05T23:40:45.458Z,100386.56
2023-12-05T23:43:12.777Z,100388.63
2023-12-05T23:45:40.143Z,100395.88
2023-12-05T23:48:07.869Z,100395.59
2023-12-05T23:50:35.331Z,100388.75
2023-12-05T23:53:03.331Z,100399.28
2023-12-05T23:55:30.849Z,100395.47
2023-12-05T23:57:58.389Z,100399.09
